Time;durP1;ratioP1;P1;durP2;ratioP2;P2;SDS_P1;SDS_P2;PMS_P1;PMS_P2;Temp;Humidity;BMP_temperature;BMP_pressure;BME280_temperature;BME280_humidity;BME280_pressure;Samples;Min_cycle;Max_cycle;Signal;HPM_P1;HPM_P2
2020/12/17 00:01:25;;;;;;;;;;;;;;;;;;5031560;28;20027;-64
2020/12/17 00:03:51;;;;;;;;;;;;;;;;;;5032532;28;19932;-64
2020/12/17 00:06:18;;;;;;;;;;;;;;;;;;5030432;28;19940;-64
2020/12/17 00:08:44;;;;;;;;;;;;;;;;;;5030312;28;19928;-64
2020/12/17 00:11:11;;;;;;;;;;;;;;;;;;5032290;28;19925;-64
2020/12/17 00:13:37;;;;;;;;;;;;;;;;;;5031063;28;20264;-65
2020/12/17 00:16:04;;;;;;;;;;;;;;;;;;5031371;28;19925;-64
2020/12/17 00:18:30;;;;;;;;;;;;;;;;;;5029005;28;19932;-65
2020/12/17 00:20:57;;;;;;;;;;;;;;;;;;5029967;28;20007;-65
2020/12/17 00:23:23;;;;;;;;;;;;;;;;;;5028868;28;21363;-65
2020/12/17 00:25:50;;;;;;;;;;;;;;;;;;5029401;28;19936;-65
2020/12/17 00:28:16;;;;;;;;;;;;;;;;;;5029088;28;20302;-65
2020/12/17 00:30:43;;;;;;;;;;;;;;;;;;5030955;28;20032;-64
2020/12/17 00:33:09;;;;;;;;;;;;;;;;;;5031448;28;20298;-65
2020/12/17 00:35:36;;;;;;;;;;;;;;;;;;5031119;28;19974;-64
2020/12/17 00:38:02;;;;;;;;;;;;;;;;;;5031323;28;20296;-65
2020/12/17 00:40:29;;;;;;;;;;;;;;;;;;5030894;28;19931;-62
2020/12/17 00:42:55;;;;;;;;;;;;;;;;;;5026087;28;19925;-64
2020/12/17 00:45:22;;;;;;;;;;;;;;;;;;5029582;28;19933;-64
2020/12/17 00:47:48;;;;;;;;;;;;;;;;;;5031840;28;19925;-64
2020/12/17 00:50:15;;;;;;;;;;;;;;;;;;5030820;28;19925;-65
2020/12/17 00:52:41;;;;;;;;;;;;;;;;;;5028552;28;19932;-64
2020/12/17 00:55:08;;;;;;;;;;;;;;;;;;5024611;28;19947;-63
2020/12/17 00:57:34;;;;;;;;;;;;;;;;;;5028167;28;19926;-63
2020/12/17 01:00:01;;;;;;;;;;;;;;;;;;5027430;28;20304;-64
2020/12/17 01:02:27;;;;;;;;;;;;;;;;;;5030307;28;19929;-64
2020/12/17 01:04:54;;;;;;;;;;;;;;;;;;5031479;28;19971;-63
2020/12/17 01:07:20;;;;;;;;;;;;;;;;;;5023788;28;20415;-63
2020/12/17 01:09:47;;;;;;;;;;;;;;;;;;5026425;28;19931;-64
2020/12/17 01:12:14;;;;;;;;;;;;;;;;;;5029390;28;19931;-63
2020/12/17 01:14:40;;;;;;;;;;;;;;;;;;5030879;28;19925;-64
2020/12/17 01:17:07;;;;;;;;;;;;;;;;;;5031894;28;19929;-63
2020/12/17 01:19:33;;;;;;;;;;;;;;;;;;5029526;28;19925;-62
2020/12/17 01:22:00;;;;;;;;;;;;;;;;;;5030159;28;19948;-62
2020/12/17 01:24:26;;;;;;;;;;;;;;;;;;5031512;28;19929;-63
2020/12/17 01:26:53;;;;;;;;;;;;;;;;;;5028016;28;19925;-64
2020/12/17 01:29:19;;;;;;;;;;;;;;;;;;5031131;28;19932;-67
2020/12/17 01:31:46;;;;;;;;;;;;;;;;;;5028384;28;19929;-62
2020/12/17 01:34:12;;;;;;;;;;;;;;;;;;5028667;28;19979;-63
2020/12/17 01:36:39;;;;;;;;;;;;;;;;;;5032180;28;20015;-63
2020/12/17 01:39:05;;;;;;;;;;;;;;;;;;5034783;28;19929;-61
2020/12/17 01:41:32;;;;;;;;;;;;;;;;;;5034274;28;19925;-63
2020/12/17 01:43:58;;;;;;;;;;;;;;;;;;5032529;28;19932;-63
2020/12/17 01:46:25;;;;;;;;;;;;;;;;;;5034008;28;19925;-65
2020/12/17 01:48:51;;;;;;;;;;;;;;;;;;5034563;28;19932;-64
2020/12/17 01:51:18;;;;;;;;;;;;;;;;;;5035398;28;19925;-63
2020/12/17 01:53:44;;;;;;;;;;;;;;;;;;5033886;28;19939;-65
2020/12/17 01:56:11;;;;;;;;;;;;;;;;;;5033855;28;19947;-61
2020/12/17 01:58:37;;;;;;;;;;;;;;;;;;5030140;28;19930;-63
2020/12/17 02:01:04;;;;;;;;;;;;;;;;;;5020208;28;19986;-62
2020/12/17 02:03:30;;;;;;;;;;;;;;;;;;5029827;28;19925;-63
2020/12/17 02:05:57;;;;;;;;;;;;;;;;;;5033629;28;19925;-64
2020/12/17 02:08:23;;;;;;;;;;;;;;;;;;5031696;28;19925;-62
2020/12/17 02:10:50;;;;;;;;;;;;;;;;;;5033655;28;19931;-63
2020/12/17 02:13:16;;;;;;;;;;;;;;;;;;5034898;28;19935;-63
2020/12/17 02:15:43;;;;;;;;;;;;;;;;;;5030808;28;19987;-63
2020/12/17 02:18:09;;;;;;;;;;;;;;;;;;5034272;28;19929;-63
2020/12/17 02:20:36;;;;;;;;;;;;;;;;;;5035888;28;19929;-63
2020/12/17 02:23:02;;;;;;;;;;;;;;;;;;5034616;28;19932;-63
2020/12/17 02:25:29;;;;;;;;;;;;;;;;;;5032233;28;20033;-63
2020/12/17 02:27:55;;;;;;;;;;;;;;;;;;5033989;28;20401;-64
2020/12/17 02:30:21;;;;;;;;;;;;;;;;;;5035395;28;19989;-64
2020/12/17 02:32:48;;;;;;;;;;;;;;;;;;5033041;28;19990;-62
2020/12/17 02:35:14;;;;;;;;;;;;;;;;;;5026198;28;19937;-64
2020/12/17 02:37:41;;;;;;;;;;;;;;;;;;5025676;28;19929;-64
2020/12/17 02:40:08;;;;;;;;;;;;;;;;;;5033760;28;20297;-64
2020/12/17 02:42:35;;;;;;;;;;;;;;;;;;5032037;28;19925;-63
2020/12/17 02:45:01;;;;;;;;;;;;;;;;;;5032995;28;20419;-63
2020/12/17 02:47:28;;;;;;;;;;;;;;;;;;5032256;28;19931;-63
2020/12/17 02:49:54;;;;;;;;;;;;;;;;;;5033898;28;19925;-63
2020/12/17 02:52:21;;;;;;;;;;;;;;;;;;5032492;28;19934;-63
2020/12/17 02:54:47;;;;;;;;;;;;;;;;;;5031821;28;19926;-63
2020/12/17 02:57:14;;;;;;;;;;;;;;;;;;5032243;28;19929;-63
2020/12/17 02:59:40;;;;;;;;;;;;;;;;;;5033057;28;19932;-64
2020/12/17 03:02:07;;;;;;;;;;;;;;;;;;5033614;28;19929;-64
2020/12/17 03:04:33;;;;;;;;;;;;;;;;;;5033383;28;19929;-64
2020/12/17 03:07:00;;;;;;;;;;;;;;;;;;5033004;28;19925;-63
2020/12/17 03:09:26;;;;;;;;;;;;;;;;;;5032442;28;19960;-63
2020/12/17 03:11:52;;;;;;;;;;;;;;;;;;5033276;28;19931;-63
2020/12/17 03:14:19;;;;;;;;;;;;;;;;;;5033465;28;19925;-64
2020/12/17 03:16:45;;;;;;;;;;;;;;;;;;5030805;28;19929;-63
2020/12/17 03:19:12;;;;;;;;;;;;;;;;;;5033035;28;19925;-63
2020/12/17 03:21:38;;;;;;;;;;;;;;;;;;5031810;28;20615;-64
2020/12/17 03:24:04;;;;;;;;;;;;;;;;;;5033561;28;19933;-63
2020/12/17 03:26:31;;;;;;;;;;;;;;;;;;5031228;28;20447;-63
2020/12/17 03:29:00;;;;;;;;;;;;;;;;;;5027016;28;20407;-63
2020/12/17 03:31:27;;;;;;;;;;;;;;;;;;5028205;28;19925;-63
2020/12/17 03:33:53;;;;;;;;;;;;;;;;;;5032372;28;19925;-65
2020/12/17 03:36:19;;;;;;;;;;;;;;;;;;5032965;28;19971;-64
2020/12/17 03:38:46;;;;;;;;;;;;;;;;;;5033351;28;19936;-64
2020/12/17 03:41:12;;;;;;;;;;;;;;;;;;5032422;28;20297;-64
2020/12/17 03:43:39;;;;;;;;;;;;;;;;;;5032819;28;20387;-64
2020/12/17 03:46:05;;;;;;;;;;;;;;;;;;5031121;28;19933;-63
2020/12/17 03:48:32;;;;;;;;;;;;;;;;;;5032333;28;19929;-63
2020/12/17 03:50:58;;;;;;;;;;;;;;;;;;5032250;28;19925;-63
2020/12/17 03:53:24;;;;;;;;;;;;;;;;;;5032195;28;19951;-63
2020/12/17 03:55:51;;;;;;;;;;;;;;;;;;5031330;28;19925;-64
2020/12/17 03:58:17;;;;;;;;;;;;;;;;;;5032039;28;19925;-63
2020/12/17 04:00:44;;;;;;;;;;;;;;;;;;5031331;28;19979;-64
2020/12/17 04:03:10;;;;;;;;;;;;;;;;;;5030728;28;19929;-63
2020/12/17 04:05:37;;;;;;;;;;;;;;;;;;5031720;28;19925;-62
2020/12/17 04:08:03;;;;;;;;;;;;;;;;;;5029381;28;19947;-63
2020/12/17 04:10:29;;;;;;;;;;;;;;;;;;5032060;28;19925;-63
2020/12/17 04:12:56;;;;;;;;;;;;;;;;;;5032119;28;19955;-63
2020/12/17 04:15:22;;;;;;;;;;;;;;;;;;5026488;28;19929;-63
2020/12/17 04:17:49;;;;;;;;;;;;;;;;;;5031010;28;20019;-68
2020/12/17 04:20:15;;;;;;;;;;;;;;;;;;5036545;28;19933;-64
2020/12/17 04:22:42;;;;;;;;;;;;;;;;;;5033510;28;19988;-63
2020/12/17 04:25:08;;;;;;;;;;;;;;;;;;5030949;28;19933;-64
2020/12/17 04:27:34;;;;;;;;;;;;;;;;;;5031016;28;20016;-64
2020/12/17 04:30:01;;;;;;;;;;;;;;;;;;5030416;28;20018;-65
2020/12/17 04:32:28;;;;;;;;;;;;;;;;;;5031402;28;19931;-65
2020/12/17 04:34:54;;;;;;;;;;;;;;;;;;5030253;28;20041;-64
2020/12/17 04:37:21;;;;;;;;;;;;;;;;;;5031303;28;19924;-64
2020/12/17 04:39:47;;;;;;;;;;;;;;;;;;5031096;28;19925;-64
2020/12/17 04:42:13;;;;;;;;;;;;;;;;;;5024014;28;19952;-64
2020/12/17 04:44:40;;;;;;;;;;;;;;;;;;5031792;28;19990;-65
2020/12/17 04:47:06;;;;;;;;;;;;;;;;;;5026180;28;19937;-64
2020/12/17 04:49:33;;;;;;;;;;;;;;;;;;5031840;28;19947;-63
2020/12/17 04:51:59;;;;;;;;;;;;;;;;;;5030827;28;19925;-64
2020/12/17 04:54:26;;;;;;;;;;;;;;;;;;5034205;28;20083;-63
2020/12/17 04:56:52;;;;;;;;;;;;;;;;;;5043674;23;19925;-67
2020/12/17 04:59:19;;;;;;;;;;;;;;;;;;5031617;28;19947;-66
2020/12/17 05:01:45;;;;;;;;;;;;;;;;;;5029789;28;20016;-67
2020/12/17 05:04:12;;;;;;;;;;;;;;;;;;5030839;28;20032;-66
2020/12/17 05:06:38;;;;;;;;;;;;;;;;;;5028504;28;19925;-67
2020/12/17 05:09:04;;;;;;;;;;;;;;;;;;5027877;28;20036;-67
2020/12/17 05:11:31;;;;;;;;;;;;;;;;;;5023180;28;19932;-67
2020/12/17 05:13:57;;;;;;;;;;;;;;;;;;5029998;28;19925;-66
2020/12/17 05:16:24;;;;;;;;;;;;;;;;;;5029295;28;20332;-66
2020/12/17 05:18:50;;;;;;;;;;;;;;;;;;5027804;28;20389;-67
2020/12/17 05:21:16;;;;;;;;;;;;;;;;;;5037037;28;19996;-67
2020/12/17 05:23:44;;;;;;;;;;;;;;;;;;5033180;28;19929;-67
2020/12/17 05:26:10;;;;;;;;;;;;;;;;;;5027076;28;20456;-67
2020/12/17 05:28:37;;;;;;;;;;;;;;;;;;5031317;28;19952;-67
2020/12/17 05:31:03;;;;;;;;;;;;;;;;;;5033262;28;20767;-66
2020/12/17 05:33:30;;;;;;;;;;;;;;;;;;5031199;28;19929;-67
2020/12/17 05:35:56;;;;;;;;;;;;;;;;;;5028258;28;19926;-66
2020/12/17 05:38:23;;;;;;;;;;;;;;;;;;5029869;28;19925;-66
2020/12/17 05:40:49;;;;;;;;;;;;;;;;;;5024317;28;19983;-66
2020/12/17 05:43:15;;;;;;;;;;;;;;;;;;5025398;28;19979;-67
2020/12/17 05:45:42;;;;;;;;;;;;;;;;;;5026954;28;20453;-66
2020/12/17 05:48:08;;;;;;;;;;;;;;;;;;5028915;28;19933;-66
2020/12/17 05:50:35;;;;;;;;;;;;;;;;;;5030771;28;19925;-66
2020/12/17 05:53:01;;;;;;;;;;;;;;;;;;5034669;28;19925;-66
2020/12/17 05:55:28;;;;;;;;;;;;;;;;;;5023267;28;19933;-66
2020/12/17 05:57:54;;;;;;;;;;;;;;;;;;5032489;28;19951;-66
2020/12/17 06:00:20;;;;;;;;;;;;;;;;;;5028533;28;20103;-66
2020/12/17 06:02:47;;;;;;;;;;;;;;;;;;5030785;28;19955;-67
2020/12/17 06:05:13;;;;;;;;;;;;;;;;;;5026109;28;19925;-66
2020/12/17 06:07:40;;;;;;;;;;;;;;;;;;5029374;28;20312;-66
2020/12/17 06:10:06;;;;;;;;;;;;;;;;;;5024106;28;20304;-66
2020/12/17 06:12:33;;;;;;;;;;;;;;;;;;5024848;28;19932;-66
2020/12/17 06:14:59;;;;;;;;;;;;;;;;;;5031352;28;20440;-66
2020/12/17 06:17:31;;;;;;;;;;;;;;;;;;5027992;28;20369;-66
2020/12/17 06:19:58;;;;;;;;;;;;;;;;;;5035073;28;19925;-66
2020/12/17 06:22:25;;;;;;;;;;;;;;;;;;5034759;28;20349;-66
2020/12/17 06:24:51;;;;;;;;;;;;;;;;;;5028849;28;20373;-66
2020/12/17 06:27:17;;;;;;;;;;;;;;;;;;5021302;28;19936;-65
2020/12/17 06:29:44;;;;;;;;;;;;;;;;;;5030168;28;20349;-66
2020/12/17 06:32:15;;;;;;;;;;;;;;;;;;5033409;28;19983;-67
2020/12/17 06:34:41;;;;;;;;;;;;;;;;;;5029141;28;20363;-66
2020/12/17 06:37:08;;;;;;;;;;;;;;;;;;5022773;28;20388;-66
2020/12/17 06:39:34;;;;;;;;;;;;;;;;;;5031594;28;19929;-66
2020/12/17 06:42:01;;;;;;;;;;;;;;;;;;5032008;28;20396;-65
2020/12/17 06:44:27;;;;;;;;;;;;;;;;;;5028101;28;20320;-64
2020/12/17 06:46:53;;;;;;;;;;;;;;;;;;5031134;28;19972;-64
2020/12/17 06:49:22;;;;;;;;;;;;;;;;;;5030941;28;19929;-66
2020/12/17 06:51:49;;;;;;;;;;;;;;;;;;5032090;28;19979;-66
2020/12/17 06:54:15;;;;;;;;;;;;;;;;;;5025505;28;19929;-66
2020/12/17 06:56:42;;;;;;;;;;;;;;;;;;5029315;28;19925;-66
2020/12/17 06:59:08;;;;;;;;;;;;;;;;;;5024963;28;19971;-66
2020/12/17 07:01:34;;;;;;;;;;;;;;;;;;5023467;28;19936;-67
2020/12/17 07:04:01;;;;;;;;;;;;;;;;;;5025335;28;20012;-67
2020/12/17 07:06:27;;;;;;;;;;;;;;;;;;5025085;28;19979;-66
2020/12/17 07:08:54;;;;;;;;;;;;;;;;;;5031824;28;19975;-65
2020/12/17 07:11:20;;;;;;;;;;;;;;;;;;5023431;28;20028;-65
2020/12/17 07:13:47;;;;;;;;;;;;;;;;;;5024052;28;19925;-67
2020/12/17 07:16:13;;;;;;;;;;;;;;;;;;5024232;28;19929;-67
2020/12/17 07:18:39;;;;;;;;;;;;;;;;;;5022473;28;19933;-67
2020/12/17 07:21:06;;;;;;;;;;;;;;;;;;5033068;28;19929;-67
2020/12/17 07:23:32;;;;;;;;;;;;;;;;;;5030267;28;19929;-67
2020/12/17 07:25:59;;;;;;;;;;;;;;;;;;5020761;28;19929;-67
2020/12/17 07:28:26;;;;;;;;;;;;;;;;;;5029470;28;19931;-68
2020/12/17 07:30:52;;;;;;;;;;;;;;;;;;5024446;28;19925;-68
2020/12/17 07:33:19;;;;;;;;;;;;;;;;;;5027447;28;19933;-66
2020/12/17 07:35:45;;;;;;;;;;;;;;;;;;5025576;28;19929;-67
2020/12/17 07:38:12;;;;;;;;;;;;;;;;;;5026593;28;19932;-66
2020/12/17 07:40:39;;;;;;;;;;;;;;;;;;5017902;28;20066;-65
2020/12/17 07:43:05;;;;;;;;;;;;;;;;;;5025373;28;19925;-65
2020/12/17 07:45:32;;;;;;;;;;;;;;;;;;5029306;28;20329;-68
2020/12/17 07:47:58;;;;;;;;;;;;;;;;;;5028025;28;19980;-67
2020/12/17 07:50:25;;;;;;;;;;;;;;;;;;5021367;28;19929;-66
2020/12/17 07:52:51;;;;;;;;;;;;;;;;;;5025344;28;20271;-64
2020/12/17 07:55:17;;;;;;;;;;;;;;;;;;5027896;28;19994;-65
2020/12/17 07:57:44;;;;;;;;;;;;;;;;;;5026644;28;20046;-66
2020/12/17 08:00:10;;;;;;;;;;;;;;;;;;5023495;28;20378;-65
2020/12/17 08:02:39;;;;;;;;;;;;;;;;;;5028887;28;20381;-66
2020/12/17 08:05:05;;;;;;;;;;;;;;;;;;5030777;28;19925;-65
2020/12/17 08:07:32;;;;;;;;;;;;;;;;;;5030954;28;19925;-66
2020/12/17 08:09:58;;;;;;;;;;;;;;;;;;5031077;28;19933;-65
2020/12/17 08:12:25;;;;;;;;;;;;;;;;;;5031959;28;19932;-65
2020/12/17 08:14:53;;;;;;;;;;;;;;;;;;5030629;28;19925;-66
2020/12/17 08:17:19;;;;;;;;;;;;;;;;;;5031289;28;20293;-65
2020/12/17 08:19:46;;;;;;;;;;;;;;;;;;5032119;28;19940;-67
2020/12/17 08:22:12;;;;;;;;;;;;;;;;;;5031109;28;20393;-67
2020/12/17 08:24:39;;;;;;;;;;;;;;;;;;5031840;28;19933;-66
2020/12/17 08:27:05;;;;;;;;;;;;;;;;;;5029925;28;19925;-66
2020/12/17 08:29:32;;;;;;;;;;;;;;;;;;5031319;28;19925;-67
2020/12/17 08:31:58;;;;;;;;;;;;;;;;;;5031452;28;19932;-68
2020/12/17 08:34:25;;;;;;;;;;;;;;;;;;5030384;28;20340;-67
2020/12/17 08:36:51;;;;;;;;;;;;;;;;;;5028904;28;20247;-65
2020/12/17 08:39:20;;;;;;;;;;;;;;;;;;5029231;28;19925;-67
2020/12/17 08:41:46;;;;;;;;;;;;;;;;;;5031324;28;19925;-65
2020/12/17 08:44:13;;;;;;;;;;;;;;;;;;5030870;28;20381;-65
2020/12/17 08:46:39;;;;;;;;;;;;;;;;;;5030695;28;19925;-67
2020/12/17 08:49:06;;;;;;;;;;;;;;;;;;5031034;28;19979;-67
2020/12/17 08:51:32;;;;;;;;;;;;;;;;;;5025262;28;19935;-65
2020/12/17 08:53:59;;;;;;;;;;;;;;;;;;5028721;28;19932;-67
2020/12/17 08:56:25;;;;;;;;;;;;;;;;;;5025711;28;19932;-65
2020/12/17 08:58:52;;;;;;;;;;;;;;;;;;5026192;28;19933;-65
2020/12/17 09:01:18;;;;;;;;;;;;;;;;;;5028011;28;19933;-66
2020/12/17 09:03:45;;;;;;;;;;;;;;;;;;5030055;28;19925;-64
2020/12/17 09:06:11;;;;;;;;;;;;;;;;;;5030443;28;19925;-66
2020/12/17 09:08:38;;;;;;;;;;;;;;;;;;5030544;28;19925;-67
2020/12/17 09:11:04;;;;;;;;;;;;;;;;;;5030766;28;19929;-65
2020/12/17 09:13:30;;;;;;;;;;;;;;;;;;5024131;28;19948;-65
2020/12/17 09:15:58;;;;;;;;;;;;;;;;;;5029946;28;19925;-66
2020/12/17 09:18:24;;;;;;;;;;;;;;;;;;5029853;28;19933;-65
2020/12/17 09:20:51;;;;;;;;;;;;;;;;;;5030663;28;19968;-65
2020/12/17 09:23:17;;;;;;;;;;;;;;;;;;5031272;28;20273;-66
2020/12/17 09:25:44;;;;;;;;;;;;;;;;;;5029388;28;19928;-66
2020/12/17 09:28:10;;;;;;;;;;;;;;;;;;5023980;28;19992;-64
2020/12/17 09:30:37;;;;;;;;;;;;;;;;;;5030563;28;19971;-65
2020/12/17 09:33:04;;;;;;;;;;;;;;;;;;5029984;28;20438;-64
2020/12/17 09:35:30;;;;;;;;;;;;;;;;;;5022642;28;19979;-66
2020/12/17 09:37:57;;;;;;;;;;;;;;;;;;5025052;28;19932;-67
2020/12/17 09:40:23;;;;;;;;;;;;;;;;;;5025869;28;19925;-66
2020/12/17 09:42:49;;;;;;;;;;;;;;;;;;5026109;28;20298;-65
2020/12/17 09:45:16;;;;;;;;;;;;;;;;;;5026306;28;19933;-68
2020/12/17 09:47:43;;;;;;;;;;;;;;;;;;5024359;28;20044;-68
2020/12/17 09:50:09;;;;;;;;;;;;;;;;;;5022553;28;19933;-66
2020/12/17 09:52:36;;;;;;;;;;;;;;;;;;5017618;28;20034;-68
2020/12/17 09:55:02;;;;;;;;;;;;;;;;;;5018825;28;19925;-66
2020/12/17 09:57:28;;;;;;;;;;;;;;;;;;5020391;28;20049;-67
2020/12/17 09:59:55;;;;;;;;;;;;;;;;;;5021804;28;20009;-68
2020/12/17 10:02:21;;;;;;;;;;;;;;;;;;5022133;28;19925;-66
2020/12/17 10:04:48;;;;;;;;;;;;;;;;;;5019586;28;19925;-66
2020/12/17 10:07:14;;;;;;;;;;;;;;;;;;5022112;28;20681;-67
2020/12/17 10:09:41;;;;;;;;;;;;;;;;;;5022959;28;19940;-67
2020/12/17 10:12:07;;;;;;;;;;;;;;;;;;5023783;28;20009;-66
2020/12/17 10:14:34;;;;;;;;;;;;;;;;;;5021130;28;19935;-66
2020/12/17 10:17:00;;;;;;;;;;;;;;;;;;5022276;28;19929;-66
2020/12/17 10:19:27;;;;;;;;;;;;;;;;;;5021922;28;20308;-66
2020/12/17 10:21:53;;;;;;;;;;;;;;;;;;5023186;28;19929;-67
2020/12/17 10:24:20;;;;;;;;;;;;;;;;;;5033074;28;20407;-66
2020/12/17 10:26:46;;;;;;;;;;;;;;;;;;5025491;28;19932;-66
2020/12/17 10:29:13;;;;;;;;;;;;;;;;;;5027861;28;19929;-66
2020/12/17 10:31:39;;;;;;;;;;;;;;;;;;5025028;28;20016;-67
2020/12/17 10:34:06;;;;;;;;;;;;;;;;;;5033587;28;19925;-66
2020/12/17 10:36:33;;;;;;;;;;;;;;;;;;5029575;28;19933;-67
2020/12/17 10:38:59;;;;;;;;;;;;;;;;;;5033150;28;19929;-67
2020/12/17 10:41:26;;;;;;;;;;;;;;;;;;5030969;28;19932;-68
2020/12/17 10:43:52;;;;;;;;;;;;;;;;;;5031006;28;19941;-67
2020/12/17 10:46:19;;;;;;;;;;;;;;;;;;5027045;28;19925;-67
2020/12/17 10:48:45;;;;;;;;;;;;;;;;;;5032804;28;19925;-67
2020/12/17 10:51:12;;;;;;;;;;;;;;;;;;5026815;28;20016;-66
2020/12/17 10:53:38;;;;;;;;;;;;;;;;;;5026092;28;19926;-67
2020/12/17 10:56:05;;;;;;;;;;;;;;;;;;5021422;28;19931;-66
2020/12/17 10:58:31;;;;;;;;;;;;;;;;;;5035297;28;19947;-66
2020/12/17 11:00:58;;;;;;;;;;;;;;;;;;5033023;28;19936;-64
2020/12/17 11:03:24;;;;;;;;;;;;;;;;;;5031956;28;19925;-64
2020/12/17 11:05:51;;;;;;;;;;;;;;;;;;5030611;28;19937;-66
2020/12/17 11:08:17;;;;;;;;;;;;;;;;;;5030165;28;19936;-65
2020/12/17 11:10:44;;;;;;;;;;;;;;;;;;5033750;28;20324;-63
2020/12/17 11:13:10;;;;;;;;;;;;;;;;;;5032166;28;19932;-64
2020/12/17 11:15:37;;;;;;;;;;;;;;;;;;5034074;28;19932;-65
2020/12/17 11:18:03;;;;;;;;;;;;;;;;;;5033930;28;19928;-66
2020/12/17 11:20:30;;;;;;;;;;;;;;;;;;5035197;28;20012;-67
2020/12/17 11:22:56;;;;;;;;;;;;;;;;;;5034346;28;20432;-66
2020/12/17 11:25:23;;;;;;;;;;;;;;;;;;5034135;28;20024;-65
2020/12/17 11:27:50;;;;;;;;;;;;;;;;;;5033779;28;19948;-65
2020/12/17 11:30:16;;;;;;;;;;;;;;;;;;5033583;28;19925;-66
2020/12/17 11:32:43;;;;;;;;;;;;;;;;;;5029718;28;20357;-66
2020/12/17 11:35:09;;;;;;;;;;;;;;;;;;5032196;28;20012;-64
2020/12/17 11:37:36;;;;;;;;;;;;;;;;;;5031433;28;19925;-67
2020/12/17 11:40:02;;;;;;;;;;;;;;;;;;5033367;28;19925;-65
2020/12/17 11:42:29;;;;;;;;;;;;;;;;;;5033981;28;19925;-65
2020/12/17 11:44:55;;;;;;;;;;;;;;;;;;5033098;28;19929;-65
2020/12/17 11:47:22;;;;;;;;;;;;;;;;;;5031048;28;19932;-65
2020/12/17 11:49:48;;;;;;;;;;;;;;;;;;5033502;28;19925;-68
2020/12/17 11:52:15;;;;;;;;;;;;;;;;;;5033365;28;20359;-67
2020/12/17 11:54:41;;;;;;;;;;;;;;;;;;5029808;28;19926;-66
2020/12/17 11:57:08;;;;;;;;;;;;;;;;;;5031171;28;20292;-67
2020/12/17 11:59:34;;;;;;;;;;;;;;;;;;5032698;28;19925;-66
2020/12/17 12:02:01;;;;;;;;;;;;;;;;;;5031846;28;19971;-69
2020/12/17 12:04:27;;;;;;;;;;;;;;;;;;5031579;28;19939;-67
2020/12/17 12:06:54;;;;;;;;;;;;;;;;;;5031722;28;19939;-68
2020/12/17 12:09:20;;;;;;;;;;;;;;;;;;5031686;28;19999;-70
2020/12/17 12:11:47;;;;;;;;;;;;;;;;;;5031764;28;20405;-69
2020/12/17 12:14:13;;;;;;;;;;;;;;;;;;5031232;28;20314;-66
2020/12/17 12:16:40;;;;;;;;;;;;;;;;;;5029779;28;20051;-66
2020/12/17 12:19:06;;;;;;;;;;;;;;;;;;5031852;28;19951;-69
2020/12/17 12:21:33;;;;;;;;;;;;;;;;;;5035733;28;19939;-69
2020/12/17 12:23:59;;;;;;;;;;;;;;;;;;5029563;28;20016;-68
2020/12/17 12:26:26;;;;;;;;;;;;;;;;;;5030467;28;20313;-68
2020/12/17 12:28:52;;;;;;;;;;;;;;;;;;5032027;28;20015;-68
2020/12/17 12:31:19;;;;;;;;;;;;;;;;;;5030226;28;19932;-68
2020/12/17 12:33:46;;;;;;;;;;;;;;;;;;5031534;28;20022;-69
2020/12/17 12:36:12;;;;;;;;;;;;;;;;;;5030751;28;19925;-67
2020/12/17 12:38:39;;;;;;;;;;;;;;;;;;5030238;28;19932;-69
2020/12/17 12:41:05;;;;;;;;;;;;;;;;;;5030804;28;19925;-67
2020/12/17 12:43:32;;;;;;;;;;;;;;;;;;5028251;28;19972;-70
2020/12/17 12:45:58;;;;;;;;;;;;;;;;;;5020662;28;19929;-68
2020/12/17 12:48:25;;;;;;;;;;;;;;;;;;5030614;28;20300;-69
2020/12/17 12:50:51;;;;;;;;;;;;;;;;;;5032273;28;20305;-71
2020/12/17 12:53:18;;;;;;;;;;;;;;;;;;5030297;28;20016;-71
2020/12/17 12:55:44;;;;;;;;;;;;;;;;;;5025209;28;20340;-71
2020/12/17 12:58:11;;;;;;;;;;;;;;;;;;5028728;28;19925;-68
2020/12/17 13:00:37;;;;;;;;;;;;;;;;;;5026224;28;19935;-68
2020/12/17 13:03:04;;;;;;;;;;;;;;;;;;5031021;28;20032;-69
2020/12/17 13:05:30;;;;;;;;;;;;;;;;;;5028321;28;20000;-71
2020/12/17 13:07:57;;;;;;;;;;;;;;;;;;5030280;28;19949;-67
2020/12/17 13:10:23;;;;;;;;;;;;;;;;;;5030473;28;19980;-68
2020/12/17 13:12:50;;;;;;;;;;;;;;;;;;5029608;28;19980;-68
2020/12/17 13:15:16;;;;;;;;;;;;;;;;;;5030722;28;19931;-69
2020/12/17 13:17:43;;;;;;;;;;;;;;;;;;5029033;28;20670;-69
2020/12/17 13:20:09;;;;;;;;;;;;;;;;;;5034823;28;19929;-71
2020/12/17 13:22:36;;;;;;;;;;;;;;;;;;5030665;28;19924;-67
2020/12/17 13:25:03;;;;;;;;;;;;;;;;;;5030371;28;19925;-68
2020/12/17 13:27:30;;;;;;;;;;;;;;;;;;5029737;28;19925;-72
2020/12/17 13:29:56;;;;;;;;;;;;;;;;;;5031440;28;19925;-70
2020/12/17 13:32:23;;;;;;;;;;;;;;;;;;5031382;28;20347;-69
2020/12/17 13:34:49;;;;;;;;;;;;;;;;;;5025169;28;19931;-71
2020/12/17 13:37:16;;;;;;;;;;;;;;;;;;5035277;28;20028;-70
2020/12/17 13:39:42;;;;;;;;;;;;;;;;;;5033362;28;19926;-70
2020/12/17 13:42:09;;;;;;;;;;;;;;;;;;5041552;28;19926;-70
2020/12/17 13:44:35;;;;;;;;;;;;;;;;;;5033843;28;19933;-69
2020/12/17 13:47:02;;;;;;;;;;;;;;;;;;5031805;28;19929;-71
2020/12/17 13:49:29;;;;;;;;;;;;;;;;;;5035254;28;19932;-69
2020/12/17 13:51:55;;;;;;;;;;;;;;;;;;5040462;28;19987;-67
2020/12/17 13:54:22;;;;;;;;;;;;;;;;;;5033582;28;19925;-66
2020/12/17 13:56:48;;;;;;;;;;;;;;;;;;5030137;28;19926;-63
2020/12/17 13:59:15;;;;;;;;;;;;;;;;;;5031304;28;19937;-68
2020/12/17 14:01:41;;;;;;;;;;;;;;;;;;5032352;28;19972;-70
2020/12/17 14:04:08;;;;;;;;;;;;;;;;;;5032024;28;19925;-68
2020/12/17 14:06:34;;;;;;;;;;;;;;;;;;5031702;28;20016;-68
2020/12/17 14:09:01;;;;;;;;;;;;;;;;;;5036748;28;19939;-67
2020/12/17 14:11:27;;;;;;;;;;;;;;;;;;5040163;28;20075;-70
2020/12/17 14:13:54;;;;;;;;;;;;;;;;;;5042170;28;20016;-69
2020/12/17 14:16:20;;;;;;;;;;;;;;;;;;5040919;28;19925;-69
2020/12/17 14:18:49;;;;;;;;;;;;;;;;;;5036113;28;20015;-68
2020/12/17 14:21:15;;;;;;;;;;;;;;;;;;5050778;28;19925;-71
2020/12/17 14:23:42;;;;;;;;;;;;;;;;;;5037921;28;20336;-69
2020/12/17 14:26:08;;;;;;;;;;;;;;;;;;5039270;28;19931;-70
2020/12/17 14:28:35;;;;;;;;;;;;;;;;;;5039215;28;20024;-72
2020/12/17 14:31:01;;;;;;;;;;;;;;;;;;5034242;28;19925;-68
2020/12/17 14:33:28;;;;;;;;;;;;;;;;;;5031367;28;19925;-68
2020/12/17 14:35:54;;;;;;;;;;;;;;;;;;5020487;28;19926;-69
2020/12/17 14:38:21;;;;;;;;;;;;;;;;;;5031527;28;20405;-70
2020/12/17 14:40:47;;;;;;;;;;;;;;;;;;5028554;28;19929;-68
2020/12/17 14:43:14;;;;;;;;;;;;;;;;;;5028856;28;20293;-67
2020/12/17 14:45:40;;;;;;;;;;;;;;;;;;5027195;28;19932;-68
2020/12/17 14:48:07;;;;;;;;;;;;;;;;;;5034084;28;19925;-68
2020/12/17 14:50:33;;;;;;;;;;;;;;;;;;5033893;28;19948;-68
2020/12/17 14:53:00;;;;;;;;;;;;;;;;;;5032643;28;20453;-68
2020/12/17 14:55:26;;;;;;;;;;;;;;;;;;5033472;28;19925;-68
2020/12/17 14:57:53;;;;;;;;;;;;;;;;;;5030976;28;20285;-67
2020/12/17 15:00:19;;;;;;;;;;;;;;;;;;5032889;28;19933;-68
2020/12/17 15:02:46;;;;;;;;;;;;;;;;;;5033628;28;20385;-69
2020/12/17 15:05:12;;;;;;;;;;;;;;;;;;5032104;28;19990;-69
2020/12/17 15:07:39;;;;;;;;;;;;;;;;;;5032327;28;20339;-67
2020/12/17 15:10:05;;;;;;;;;;;;;;;;;;5031900;28;19925;-67
2020/12/17 15:12:32;;;;;;;;;;;;;;;;;;5031702;28;19971;-68
2020/12/17 15:14:58;;;;;;;;;;;;;;;;;;5028041;28;20173;-68
2020/12/17 15:17:25;;;;;;;;;;;;;;;;;;5031404;28;19969;-66
2020/12/17 15:19:51;;;;;;;;;;;;;;;;;;5033444;28;20452;-67
2020/12/17 15:22:18;;;;;;;;;;;;;;;;;;5033135;28;20389;-66
2020/12/17 15:24:44;;;;;;;;;;;;;;;;;;5032725;28;19931;-68
2020/12/17 15:27:11;;;;;;;;;;;;;;;;;;5032167;28;19938;-67
2020/12/17 15:29:37;;;;;;;;;;;;;;;;;;5031215;28;19936;-70
2020/12/17 15:32:04;;;;;;;;;;;;;;;;;;5032294;28;20024;-65
2020/12/17 15:34:30;;;;;;;;;;;;;;;;;;5030854;28;20408;-65
2020/12/17 15:36:57;;;;;;;;;;;;;;;;;;5031384;28;20012;-67
2020/12/17 15:39:23;;;;;;;;;;;;;;;;;;5031447;28;19935;-67
2020/12/17 15:41:50;;;;;;;;;;;;;;;;;;5026184;28;20016;-66
2020/12/17 15:44:16;;;;;;;;;;;;;;;;;;5035828;28;20019;-65
2020/12/17 15:46:43;;;;;;;;;;;;;;;;;;5032484;28;19929;-66
2020/12/17 15:49:09;;;;;;;;;;;;;;;;;;5025600;28;19926;-67
2020/12/17 15:51:36;;;;;;;;;;;;;;;;;;5019842;28;19925;-67
2020/12/17 15:54:03;;;;;;;;;;;;;;;;;;5031333;28;19932;-66
2020/12/17 15:56:29;;;;;;;;;;;;;;;;;;5024623;28;19925;-67
2020/12/17 15:58:56;;;;;;;;;;;;;;;;;;5029079;28;19925;-67
2020/12/17 16:01:22;;;;;;;;;;;;;;;;;;5032398;28;20024;-67
2020/12/17 16:03:49;;;;;;;;;;;;;;;;;;5030409;28;19932;-67
2020/12/17 16:06:16;;;;;;;;;;;;;;;;;;5022581;28;19935;-67
2020/12/17 16:08:42;;;;;;;;;;;;;;;;;;5029874;28;19932;-67
2020/12/17 16:11:09;;;;;;;;;;;;;;;;;;5021200;28;20456;-66
2020/12/17 16:13:36;;;;;;;;;;;;;;;;;;5022424;28;19932;-67
2020/12/17 16:16:02;;;;;;;;;;;;;;;;;;5024628;28;20293;-66
2020/12/17 16:18:29;;;;;;;;;;;;;;;;;;5013704;28;19936;-66
2020/12/17 16:20:55;;;;;;;;;;;;;;;;;;5023700;28;19996;-66
2020/12/17 16:23:22;;;;;;;;;;;;;;;;;;5029991;28;19932;-66
2020/12/17 16:25:48;;;;;;;;;;;;;;;;;;5031534;28;19925;-65
2020/12/17 16:28:15;;;;;;;;;;;;;;;;;;5031534;28;20356;-66
2020/12/17 16:30:41;;;;;;;;;;;;;;;;;;5017730;28;19931;-67
2020/12/17 16:33:08;;;;;;;;;;;;;;;;;;5024289;28;19944;-66
2020/12/17 16:35:34;;;;;;;;;;;;;;;;;;5028655;28;20341;-66
2020/12/17 16:38:01;;;;;;;;;;;;;;;;;;5016875;28;19932;-66
2020/12/17 16:40:30;;;;;;;;;;;;;;;;;;5020526;28;19929;-66